createdAt,value
2019-05-18T00:00:50.465Z,98348.36
2019-05-18T00:03:18.854Z,98347.98
2019-05-18T00:05:47.314Z,98343.89
2019-05-18T00:08:15.733Z,98343.00
2019-05-18T00:10:44.135Z,98342.16
2019-05-18T00:13:12.519Z,98345.38
2019-05-18T00:15:40.935Z,98345.09
2019-05-18T00:18:09.338Z,98345.14
2019-05-18T00:20:37.739Z,98344.06
2019-05-18T00:23:06.221Z,98347.08
2019-05-18T00:25:36.057Z,98341.63
2019-05-18T00:28:04.526Z,98351.11
2019-05-18T00:30:33.011Z,98346.02
2019-05-18T00:33:01.412Z,98345.30
2019-05-18T00:35:29.807Z,98344.52
2019-05-18T00:37:58.234Z,98345.22
2019-05-18T00:40:26.622Z,98350.92
2019-05-18T00:42:55.014Z,98349.70
2019-05-18T00:45:23.767Z,98348.52
2019-05-18T00:47:52.158Z,98352.28
2019-05-18T00:50:20.619Z,98352.42
2019-05-18T00:52:49.031Z,98359.78
2019-05-18T00:55:17.425Z,98361.61
2019-05-18T00:57:45.818Z,98357.39
2019-05-18T01:00:15.270Z,98355.91
2019-05-18T01:02:43.664Z,98357.11
2019-05-18T01:05:12.232Z,98360.02
2019-05-18T01:07:40.848Z,98363.31
2019-05-18T01:10:09.685Z,98361.20
2019-05-18T01:12:38.087Z,98361.00
2019-05-18T01:15:08.784Z,98358.08
2019-05-18T01:17:37.234Z,98357.39
2019-05-18T01:20:06.403Z,98357.11
2019-05-18T01:22:35.015Z,98359.05
2019-05-18T01:25:03.547Z,98364.48
2019-05-18T01:27:31.941Z,98367.59
2019-05-18T01:30:00.373Z,98360.41
2019-05-18T01:32:29.030Z,98363.65
2019-05-18T01:34:57.423Z,98362.95
2019-05-18T01:37:25.910Z,98362.48
2019-05-18T01:39:54.575Z,98367.47
2019-05-18T01:42:22.959Z,98362.94
2019-05-18T01:44:51.756Z,98364.67
2019-05-18T01:47:20.151Z,98366.42
2019-05-18T01:49:48.572Z,98362.13
2019-05-18T01:52:17.040Z,98364.83
2019-05-18T01:54:45.431Z,98365.32
2019-05-18T01:57:13.897Z,98370.44
2019-05-18T01:59:42.386Z,98369.55
2019-05-18T02:02:10.784Z,98365.66
2019-05-18T02:04:39.418Z,98360.21
2019-05-18T02:07:07.839Z,98362.42
2019-05-18T02:09:36.241Z,98364.56
2019-05-18T02:12:04.622Z,98356.05
2019-05-18T02:14:33.035Z,98356.28
2019-05-18T02:17:01.464Z,98361.63
2019-05-18T02:19:29.894Z,98360.78
2019-05-18T02:21:58.385Z,98360.72
2019-05-18T02:24:26.776Z,98357.54
2019-05-18T02:26:55.173Z,98354.39
2019-05-18T02:29:23.712Z,98349.45
2019-05-18T02:31:52.115Z,98347.25
2019-05-18T02:34:20.535Z,98351.65
2019-05-18T02:36:48.915Z,98349.55
2019-05-18T02:39:17.307Z,98348.29
2019-05-18T02:41:45.700Z,98343.04
2019-05-18T02:44:14.191Z,98338.67
2019-05-18T02:46:42.598Z,98347.16
2019-05-18T02:49:11.289Z,98347.67
2019-05-18T02:51:40.066Z,98346.00
2019-05-18T02:54:08.534Z,98347.45
2019-05-18T02:56:37.076Z,98348.84
2019-05-18T02:59:05.496Z,98348.45
2019-05-18T03:01:33.892Z,98348.92
2019-05-18T03:04:02.282Z,98348.48
2019-05-18T03:06:31.165Z,98352.45
2019-05-18T03:08:59.561Z,98353.89
2019-05-18T03:11:27.952Z,98348.64
2019-05-18T03:13:56.576Z,98343.39
2019-05-18T03:16:24.965Z,98345.15
2019-05-18T03:19:07.593Z,98342.48
2019-05-18T03:21:23.876Z,98342.05
2019-05-18T03:23:52.262Z,98345.66
2019-05-18T03:26:20.658Z,98344.39
2019-05-18T03:28:49.147Z,98347.09
2019-05-18T03:31:17.803Z,98350.23
2019-05-18T03:33:46.198Z,98345.48
2019-05-18T03:36:14.694Z,98338.03
2019-05-18T03:38:43.079Z,98338.41
2019-05-18T03:41:11.472Z,98338.30
2019-05-18T03:43:39.962Z,98343.13
2019-05-18T03:46:08.351Z,98346.69
2019-05-18T03:48:36.745Z,98343.98
2019-05-18T03:51:06.179Z,98344.71
2019-05-18T03:53:34.575Z,98342.92
2019-05-18T03:56:03.004Z,98337.80
2019-05-18T03:58:31.405Z,98338.80
2019-05-18T04:00:59.807Z,98336.19
2019-05-18T04:03:28.206Z,98341.09
2019-05-18T04:05:56.694Z,98343.34
2019-05-18T04:08:25.076Z,98341.38
2019-05-18T04:10:53.636Z,98344.52
2019-05-18T04:13:22.063Z,98342.70
2019-05-18T04:15:50.465Z,98340.84
2019-05-18T04:18:18.852Z,98355.75
2019-05-18T04:20:47.263Z,98356.70
2019-05-18T04:23:15.652Z,98355.75
2019-05-18T04:25:44.293Z,98353.90
2019-05-18T04:28:12.749Z,98357.73
2019-05-18T04:30:41.151Z,98355.53
2019-05-18T04:33:09.555Z,98362.10
2019-05-18T04:35:37.969Z,98362.95
2019-05-18T04:38:06.362Z,98361.63
2019-05-18T04:40:34.758Z,98363.90
2019-05-18T04:43:03.259Z,98367.52
2019-05-18T04:45:31.670Z,98369.75
2019-05-18T04:48:00.058Z,98373.27
2019-05-18T04:50:28.492Z,98383.33
2019-05-18T04:52:56.899Z,98378.87
2019-05-18T04:55:25.548Z,98377.98
2019-05-18T04:57:53.975Z,98381.06
2019-05-18T05:00:22.506Z,98377.98
2019-05-18T05:02:50.835Z,98377.48
2019-05-18T05:05:19.332Z,98377.42
2019-05-18T05:07:47.727Z,98373.83
2019-05-18T05:10:16.560Z,98375.09
2019-05-18T05:12:45.045Z,98374.17
2019-05-18T05:15:13.674Z,98380.41
2019-05-18T05:17:42.067Z,98375.50
2019-05-18T05:20:19.124Z,98376.31
2019-05-18T05:22:40.682Z,98371.84
2019-05-18T05:25:09.169Z,98375.74
2019-05-18T05:27:37.920Z,98376.52
2019-05-18T05:30:07.560Z,98379.84
2019-05-18T05:32:35.964Z,98385.78
2019-05-18T05:35:06.036Z,98378.42
2019-05-18T05:37:34.711Z,98374.33
2019-05-18T05:40:03.922Z,98384.95
2019-05-18T05:42:32.428Z,98388.58
2019-05-18T05:45:00.828Z,98389.31
2019-05-18T05:47:29.234Z,98391.55
2019-05-18T05:49:57.654Z,98393.61
2019-05-18T05:52:26.044Z,98388.97
2019-05-18T05:54:54.452Z,98390.02
2019-05-18T05:57:22.940Z,98391.44
2019-05-18T05:59:51.660Z,98387.98
2019-05-18T06:02:20.061Z,98388.69
2019-05-18T06:04:48.589Z,98395.67
2019-05-18T06:07:17.299Z,98393.70
2019-05-18T06:09:45.714Z,98392.16
2019-05-18T06:12:14.498Z,98392.80
2019-05-18T06:14:43.275Z,98394.30
2019-05-18T06:17:11.974Z,98397.06
2019-05-18T06:19:40.750Z,98390.97
2019-05-18T06:22:09.154Z,98395.78
2019-05-18T06:24:37.573Z,98395.25
2019-05-18T06:27:06.315Z,98393.13
2019-05-18T06:29:34.733Z,98398.07
2019-05-18T06:32:03.119Z,98398.07
2019-05-18T06:34:31.634Z,98401.83
2019-05-18T06:37:00.029Z,98399.00
2019-05-18T06:39:28.441Z,98399.92
2019-05-18T06:41:56.966Z,98398.86
2019-05-18T06:44:25.366Z,98405.80
2019-05-18T06:46:53.768Z,98402.13
2019-05-18T06:49:22.201Z,98407.94
2019-05-18T06:51:50.767Z,98405.89
2019-05-18T06:54:19.314Z,98403.79
2019-05-18T06:56:48.701Z,98402.25
2019-05-18T06:59:17.243Z,98400.19
2019-05-18T07:01:45.643Z,98404.97
2019-05-18T07:04:14.065Z,98406.23
2019-05-18T07:06:42.474Z,98408.70
2019-05-18T07:09:14.019Z,98408.15
2019-05-18T07:11:41.121Z,98410.94
2019-05-18T07:14:09.569Z,98417.36
2019-05-18T07:16:38.741Z,98411.30
2019-05-18T07:19:07.280Z,98415.16
2019-05-18T07:21:35.681Z,98413.78
2019-05-18T07:24:04.253Z,98421.59
2019-05-18T07:26:32.979Z,98425.63
2019-05-18T07:29:05.543Z,98427.30
2019-05-18T07:31:31.908Z,98428.08
2019-05-18T07:34:00.329Z,98426.09
2019-05-18T07:36:28.732Z,98430.51
2019-05-18T07:38:57.119Z,98430.91
2019-05-18T07:41:25.624Z,98428.91
2019-05-18T07:43:54.024Z,98423.58
2019-05-18T07:46:22.448Z,98429.84
2019-05-18T07:48:51.092Z,98430.52
2019-05-18T07:51:19.490Z,98425.63
2019-05-18T07:53:47.973Z,98431.41
2019-05-18T07:56:16.607Z,98431.20
2019-05-18T07:58:45.003Z,98434.28
2019-05-18T08:01:13.397Z,98437.00
2019-05-18T08:03:41.807Z,98430.91
2019-05-18T08:06:10.366Z,98434.50
2019-05-18T08:08:39.087Z,98436.29
2019-05-18T08:11:07.781Z,98428.99
2019-05-18T08:13:36.164Z,98427.40
2019-05-18T08:16:04.711Z,98429.82
2019-05-18T08:18:33.124Z,98423.09
2019-05-18T08:21:01.514Z,98427.81
2019-05-18T08:23:29.907Z,98425.02
2019-05-18T08:25:58.400Z,98425.66
2019-05-18T08:28:26.793Z,98424.88
2019-05-18T08:30:55.190Z,98427.23
2019-05-18T08:33:23.611Z,98429.20
2019-05-18T08:35:52.036Z,98428.45
2019-05-18T08:38:20.416Z,98433.95
2019-05-18T08:40:49.277Z,98431.92
2019-05-18T08:43:17.672Z,98425.61
2019-05-18T08:45:46.077Z,98418.80
2019-05-18T08:48:14.505Z,98424.41
2019-05-18T08:50:42.912Z,98420.50
2019-05-18T08:53:11.306Z,98431.05
2019-05-18T08:55:39.717Z,98434.14
2019-05-18T08:58:08.114Z,98436.13
2019-05-18T09:00:36.770Z,98434.94
2019-05-18T09:03:05.299Z,98431.56
2019-05-18T09:05:33.708Z,98435.77
2019-05-18T09:08:02.093Z,98434.73
2019-05-18T09:10:30.517Z,98440.20
2019-05-18T09:12:59.174Z,98436.98
2019-05-18T09:15:27.565Z,98438.36
2019-05-18T09:17:56.238Z,98435.34
2019-05-18T09:20:24.651Z,98432.42
2019-05-18T09:22:53.021Z,98426.41
2019-05-18T09:25:21.505Z,98431.04
2019-05-18T09:27:49.903Z,98436.38
2019-05-18T09:30:18.630Z,98435.75
2019-05-18T09:32:47.430Z,98434.45
2019-05-18T09:35:16.165Z,98432.97
2019-05-18T09:37:44.559Z,98431.73
2019-05-18T09:40:13.047Z,98435.12
2019-05-18T09:42:42.474Z,98427.82
2019-05-18T09:45:11.913Z,98433.05
2019-05-18T09:47:40.670Z,98424.34
2019-05-18T09:50:09.703Z,98421.59
2019-05-18T09:52:46.355Z,98422.76
2019-05-18T09:55:08.925Z,98417.25
2019-05-18T09:57:37.315Z,98416.81
2019-05-18T10:00:11.212Z,98416.98
2019-05-18T10:02:39.839Z,98415.53
2019-05-18T10:05:08.536Z,98413.63
2019-05-18T10:07:36.922Z,98422.17
2019-05-18T10:10:08.004Z,98420.89
2019-05-18T10:12:36.400Z,98421.67
2019-05-18T10:15:07.383Z,98422.59
2019-05-18T10:17:35.886Z,98420.78
2019-05-18T10:20:10.044Z,98425.06
2019-05-18T10:22:51.177Z,98420.70
2019-05-18T10:25:09.702Z,98425.52
2019-05-18T10:27:38.073Z,98418.34
2019-05-18T10:30:09.174Z,98417.00
2019-05-18T10:32:37.584Z,98426.14
2019-05-18T10:35:07.516Z,98421.48
2019-05-18T10:37:35.908Z,98423.08
2019-05-18T10:40:07.707Z,98425.32
2019-05-18T10:42:36.094Z,98417.57
2019-05-18T10:45:06.383Z,98417.27
2019-05-18T10:47:34.813Z,98410.98
2019-05-18T10:50:03.287Z,98408.59
2019-05-18T10:52:31.672Z,98409.73
2019-05-18T10:55:00.094Z,98410.27
2019-05-18T10:57:28.486Z,98409.69
2019-05-18T10:59:56.879Z,98412.27
2019-05-18T11:02:25.599Z,98419.98
2019-05-18T11:04:53.993Z,98413.50
2019-05-18T11:07:22.404Z,98414.58
2019-05-18T11:09:50.828Z,98416.14
2019-05-18T11:12:19.223Z,98415.64
2019-05-18T11:14:47.628Z,98409.62
2019-05-18T11:17:16.050Z,98404.56
2019-05-18T11:19:44.760Z,98403.23
2019-05-18T11:22:13.148Z,98410.88
2019-05-18T11:24:41.552Z,98410.38
2019-05-18T11:27:09.955Z,98410.63
2019-05-18T11:29:38.347Z,98408.09
2019-05-18T11:32:07.188Z,98404.70
2019-05-18T11:34:35.582Z,98399.95
2019-05-18T11:37:03.982Z,98399.11
2019-05-18T11:39:32.412Z,98405.68
2019-05-18T11:42:00.808Z,98394.64
2019-05-18T11:44:29.464Z,98393.20
2019-05-18T11:46:57.889Z,98393.34
2019-05-18T11:49:29.040Z,98392.72
2019-05-18T11:51:56.405Z,98395.61
2019-05-18T11:54:24.818Z,98390.04
2019-05-18T11:56:53.235Z,98390.19
2019-05-18T11:59:21.603Z,98396.02
2019-05-18T12:01:50.181Z,98396.25
2019-05-18T12:04:18.581Z,98395.36
2019-05-18T12:06:46.968Z,98394.97
2019-05-18T12:09:15.392Z,98394.45
2019-05-18T12:11:43.781Z,98388.48
2019-05-18T12:14:12.181Z,98379.59
2019-05-18T12:16:40.614Z,98381.17
2019-05-18T12:19:09.021Z,98384.73
2019-05-18T12:21:37.416Z,98384.76
2019-05-18T12:24:14.633Z,98383.48
2019-05-18T12:26:36.039Z,98380.52
2019-05-18T12:29:04.431Z,98382.07
2019-05-18T12:31:32.825Z,98385.81
2019-05-18T12:34:01.259Z,98392.70
2019-05-18T12:36:29.648Z,98385.53
2019-05-18T12:38:58.038Z,98387.41
2019-05-18T12:41:29.263Z,98385.79
2019-05-18T12:43:57.789Z,98389.56
2019-05-18T12:46:26.250Z,98391.25
2019-05-18T12:48:54.785Z,98390.89
2019-05-18T12:51:23.346Z,98383.20
2019-05-18T12:53:51.765Z,98373.62
2019-05-18T12:56:20.320Z,98376.77
2019-05-18T12:58:48.730Z,98374.50
2019-05-18T13:01:17.125Z,98371.59
2019-05-18T13:03:45.540Z,98374.43
2019-05-18T13:06:14.606Z,98367.80
2019-05-18T13:08:43.024Z,98364.13
2019-05-18T13:11:11.420Z,98365.27
2019-05-18T13:13:39.812Z,98364.83
2019-05-18T13:16:08.224Z,98366.97
2019-05-18T13:18:36.685Z,98360.06
2019-05-18T13:21:05.082Z,98362.41
2019-05-18T13:23:33.501Z,98364.62
2019-05-18T13:26:01.883Z,98361.72
2019-05-18T13:28:30.273Z,98368.19
2019-05-18T13:30:58.692Z,98364.55
2019-05-18T13:33:27.088Z,98354.98
2019-05-18T13:35:55.478Z,98347.31
2019-05-18T13:38:23.907Z,98344.89
2019-05-18T13:40:52.291Z,98343.20
2019-05-18T13:43:20.676Z,98341.63
2019-05-18T13:45:49.109Z,98345.38
2019-05-18T13:48:17.492Z,98345.09
2019-05-18T13:50:45.891Z,98335.81
2019-05-18T13:53:14.305Z,98333.89
2019-05-18T13:55:42.699Z,98333.24
2019-05-18T13:58:11.408Z,98336.88
2019-05-18T14:00:40.300Z,98331.23
2019-05-18T14:03:09.046Z,98330.61
2019-05-18T14:05:37.438Z,98328.39
2019-05-18T14:08:05.859Z,98333.78
2019-05-18T14:10:34.644Z,98331.53
2019-05-18T14:13:03.034Z,98337.47
2019-05-18T14:15:31.523Z,98331.09
2019-05-18T14:18:00.171Z,98332.23
2019-05-18T14:20:28.873Z,98334.95
2019-05-18T14:22:57.362Z,98336.30
2019-05-18T14:25:25.745Z,98333.15
2019-05-18T14:27:54.139Z,98333.24
2019-05-18T14:30:23.776Z,98330.56
2019-05-18T14:32:52.163Z,98328.94
2019-05-18T14:35:20.551Z,98332.47
2019-05-18T14:37:48.968Z,98334.58
2019-05-18T14:40:17.430Z,98336.95
2019-05-18T14:42:45.831Z,98339.76
2019-05-18T14:45:14.501Z,98339.50
2019-05-18T14:47:42.898Z,98336.93
2019-05-18T14:50:11.529Z,98335.89
2019-05-18T14:52:39.957Z,98333.75
2019-05-18T14:55:09.698Z,98325.76
2019-05-18T14:57:38.089Z,98317.76
2019-05-18T15:00:07.750Z,98316.27
2019-05-18T15:02:36.244Z,98316.70
2019-05-18T15:05:07.379Z,98312.02
2019-05-18T15:07:35.798Z,98307.23
2019-05-18T15:10:06.727Z,98325.07
2019-05-18T15:12:35.119Z,98325.94
2019-05-18T15:15:04.813Z,98319.66
2019-05-18T15:17:33.196Z,98315.16
2019-05-18T15:20:01.601Z,98317.58
2019-05-18T15:22:30.017Z,98310.29
2019-05-18T15:24:58.411Z,98305.77
2019-05-18T15:27:26.810Z,98311.05
2019-05-18T15:29:55.529Z,98305.41
2019-05-18T15:32:23.928Z,98301.09
2019-05-18T15:34:52.592Z,98306.21
2019-05-18T15:37:21.040Z,98304.72
2019-05-18T15:39:49.412Z,98308.61
2019-05-18T15:42:17.816Z,98310.66
2019-05-18T15:44:46.250Z,98312.59
2019-05-18T15:47:14.634Z,98312.69
2019-05-18T15:49:43.030Z,98312.45
2019-05-18T15:52:11.458Z,98324.22
2019-05-18T15:54:39.843Z,98322.88
2019-05-18T15:57:08.522Z,98323.51
2019-05-18T15:59:37.001Z,98320.04
2019-05-18T16:02:06.555Z,98320.45
2019-05-18T16:04:35.604Z,98324.14
2019-05-18T16:07:04.014Z,98324.05
2019-05-18T16:09:32.669Z,98327.44
2019-05-18T16:12:01.133Z,98320.45
2019-05-18T16:14:29.629Z,98322.98
2019-05-18T16:16:58.016Z,98313.88
2019-05-18T16:19:26.403Z,98319.59
2019-05-18T16:21:54.920Z,98330.89
2019-05-18T16:24:23.302Z,98327.11
2019-05-18T16:26:51.693Z,98327.29
2019-05-18T16:29:20.496Z,98317.08
2019-05-18T16:31:48.887Z,98326.18
2019-05-18T16:34:17.277Z,98323.36
2019-05-18T16:36:45.694Z,98317.31
2019-05-18T16:39:14.088Z,98315.52
2019-05-18T16:41:42.481Z,98312.20
2019-05-18T16:44:11.192Z,98313.85
2019-05-18T16:46:39.588Z,98322.89
2019-05-18T16:49:07.983Z,98319.05
2019-05-18T16:51:36.407Z,98322.04
2019-05-18T16:54:04.812Z,98326.97
2019-05-18T16:56:35.115Z,98324.91
2019-05-18T16:59:03.734Z,98324.89
2019-05-18T17:01:32.124Z,98334.14
2019-05-18T17:04:00.527Z,98331.59
2019-05-18T17:06:29.160Z,98326.93
2019-05-18T17:08:57.621Z,98335.98
2019-05-18T17:11:26.015Z,98334.20
2019-05-18T17:13:54.425Z,98340.91
2019-05-18T17:16:22.818Z,98339.24
2019-05-18T17:18:51.217Z,98336.77
2019-05-18T17:21:19.622Z,98337.14
2019-05-18T17:23:48.061Z,98334.86
2019-05-18T17:26:16.403Z,98336.45
2019-05-18T17:28:45.379Z,98337.16
2019-05-18T17:31:13.772Z,98344.23
2019-05-18T17:33:42.161Z,98337.25
2019-05-18T17:36:10.639Z,98337.06
2019-05-18T17:38:38.978Z,98340.85
2019-05-18T17:41:07.374Z,98341.00
2019-05-18T17:43:35.805Z,98336.62
2019-05-18T17:46:04.275Z,98344.48
2019-05-18T17:48:32.691Z,98334.84
2019-05-18T17:51:01.165Z,98342.06
2019-05-18T17:53:29.583Z,98343.98
2019-05-18T17:55:58.064Z,98344.46
2019-05-18T17:58:26.567Z,98345.94
2019-05-18T18:00:54.969Z,98357.59
2019-05-18T18:03:23.362Z,98354.81
2019-05-18T18:05:52.062Z,98354.00
2019-05-18T18:08:20.524Z,98356.84
2019-05-18T18:10:48.906Z,98361.82
2019-05-18T18:13:17.346Z,98370.58
2019-05-18T18:15:45.747Z,98372.15
2019-05-18T18:18:14.143Z,98371.02
2019-05-18T18:20:42.831Z,98370.28
2019-05-18T18:23:11.242Z,98372.48
2019-05-18T18:25:39.639Z,98373.12
2019-05-18T18:28:08.053Z,98375.80
2019-05-18T18:30:36.763Z,98380.67
2019-05-18T18:33:05.153Z,98384.87
2019-05-18T18:35:33.559Z,98385.04
2019-05-18T18:38:01.989Z,98387.58
2019-05-18T18:40:30.372Z,98389.38
2019-05-18T18:42:58.784Z,98392.66
2019-05-18T18:45:27.174Z,98389.44
2019-05-18T18:47:55.570Z,98391.90
2019-05-18T18:50:24.065Z,98388.23
2019-05-18T18:52:52.461Z,98392.48
2019-05-18T18:55:20.915Z,98394.38
2019-05-18T18:57:49.527Z,98395.44
2019-05-18T19:00:18.739Z,98393.70
2019-05-18T19:02:47.132Z,98403.49
2019-05-18T19:05:15.622Z,98407.01
2019-05-18T19:07:44.042Z,98403.51
2019-05-18T19:10:12.838Z,98408.83
2019-05-18T19:12:41.264Z,98410.13
2019-05-18T19:15:10.509Z,98415.16
2019-05-18T19:17:38.886Z,98415.01
2019-05-18T19:20:08.231Z,98422.43
2019-05-18T19:22:36.688Z,98428.46
2019-05-18T19:25:05.615Z,98428.63
2019-05-18T19:27:34.392Z,98435.90
2019-05-18T19:30:03.261Z,98443.59
2019-05-18T19:32:31.739Z,98448.14
2019-05-18T19:35:00.144Z,98450.57
2019-05-18T19:37:28.538Z,98451.56
2019-05-18T19:39:56.939Z,98456.98
2019-05-18T19:42:25.921Z,98466.30
2019-05-18T19:44:54.314Z,98470.37
2019-05-18T19:47:22.706Z,98472.73
2019-05-18T19:49:51.242Z,98477.35
2019-05-18T19:52:19.630Z,98486.87
2019-05-18T19:54:48.029Z,98479.81
2019-05-18T19:57:16.449Z,98486.03
2019-05-18T19:59:44.840Z,98490.69
2019-05-18T20:02:13.657Z,98490.50
2019-05-18T20:04:42.410Z,98498.23
2019-05-18T20:07:10.805Z,98494.34
2019-05-18T20:09:39.469Z,98489.53
2019-05-18T20:12:07.885Z,98482.50
2019-05-18T20:14:36.279Z,98487.00
2019-05-18T20:17:04.718Z,98479.49
2019-05-18T20:19:39.144Z,98484.75
2019-05-18T20:22:03.254Z,98479.05
2019-05-18T20:24:31.643Z,98481.22
2019-05-18T20:27:00.318Z,98477.42
2019-05-18T20:29:28.703Z,98472.11
2019-05-18T20:31:57.090Z,98459.80
2019-05-18T20:34:25.579Z,98458.25
2019-05-18T20:36:53.968Z,98452.42
2019-05-18T20:39:22.367Z,98453.63
2019-05-18T20:41:50.851Z,98456.36
2019-05-18T20:44:19.249Z,98453.13
2019-05-18T20:46:47.640Z,98447.67
2019-05-18T20:49:16.061Z,98443.99
2019-05-18T20:51:44.451Z,98440.80
2019-05-18T20:54:12.846Z,98443.02
2019-05-18T20:56:41.255Z,98443.89
2019-05-18T20:59:10.009Z,98446.75
2019-05-18T21:01:38.399Z,98445.61
2019-05-18T21:04:06.902Z,98445.74
2019-05-18T21:06:35.293Z,98450.77
2019-05-18T21:09:05.028Z,98445.70
2019-05-18T21:11:33.527Z,98441.11
2019-05-18T21:14:01.921Z,98436.47
2019-05-18T21:16:30.310Z,98440.98
2019-05-18T21:18:58.807Z,98444.21
2019-05-18T21:21:27.255Z,98449.25
2019-05-18T21:23:55.631Z,98452.61
2019-05-18T21:26:24.046Z,98455.88
2019-05-18T21:28:56.421Z,98455.88
2019-05-18T21:31:22.915Z,98458.58
2019-05-18T21:33:51.332Z,98458.19
2019-05-18T21:36:19.733Z,98463.49
2019-05-18T21:38:48.131Z,98459.02
2019-05-18T21:41:16.565Z,98457.61
2019-05-18T21:43:44.937Z,98451.38
2019-05-18T21:46:13.326Z,98459.69
2019-05-18T21:48:41.748Z,98458.01
2019-05-18T21:51:10.147Z,98457.25
2019-05-18T21:53:38.543Z,98457.34
2019-05-18T21:56:07.047Z,98466.35
2019-05-18T21:58:35.698Z,98464.48
2019-05-18T22:01:04.925Z,98475.55
2019-05-18T22:03:33.385Z,98472.38
2019-05-18T22:06:01.773Z,98474.75
2019-05-18T22:08:30.128Z,98478.77
2019-05-18T22:10:58.608Z,98484.55
2019-05-18T22:13:27.002Z,98483.34
2019-05-18T22:15:55.380Z,98488.43
2019-05-18T22:18:25.061Z,98483.70
2019-05-18T22:20:53.526Z,98478.92
2019-05-18T22:23:21.926Z,98482.00
2019-05-18T22:25:50.338Z,98476.67
2019-05-18T22:28:18.733Z,98472.62
2019-05-18T22:30:47.130Z,98473.94
2019-05-18T22:33:15.554Z,98471.17
2019-05-18T22:35:44.227Z,98469.33
2019-05-18T22:38:12.622Z,98466.20
2019-05-18T22:40:41.032Z,98459.98
2019-05-18T22:43:09.429Z,98460.17
2019-05-18T22:45:37.820Z,98467.77
2019-05-18T22:48:06.243Z,98474.39
2019-05-18T22:50:34.640Z,98475.31
2019-05-18T22:53:03.015Z,98475.08
2019-05-18T22:55:31.431Z,98475.75
2019-05-18T22:57:59.827Z,98482.61
2019-05-18T23:00:28.225Z,98470.89
2019-05-18T23:02:56.726Z,98470.61
2019-05-18T23:05:25.110Z,98467.16
2019-05-18T23:07:53.503Z,98466.23
2019-05-18T23:10:21.999Z,98463.42
2019-05-18T23:12:50.386Z,98466.75
2019-05-18T23:15:19.146Z,98466.92
2019-05-18T23:17:47.817Z,98467.20
2019-05-18T23:20:16.306Z,98463.55
2019-05-18T23:22:44.952Z,98464.75
2019-05-18T23:25:13.578Z,98451.45
2019-05-18T23:27:41.980Z,98458.72
2019-05-18T23:30:11.223Z,98454.17
2019-05-18T23:32:39.695Z,98458.51
2019-05-18T23:35:08.234Z,98455.50
2019-05-18T23:37:36.626Z,98447.16
2019-05-18T23:40:06.184Z,98446.39
2019-05-18T23:42:34.587Z,98450.45
2019-05-18T23:45:03.134Z,98443.91
2019-05-18T23:47:31.635Z,98445.00
2019-05-18T23:50:00.031Z,98441.55
2019-05-18T23:52:28.419Z,98440.66
2019-05-18T23:54:56.841Z,98437.25
2019-05-18T23:57:25.252Z,98438.22
2019-05-18T23:59:53.633Z,98433.68
